Fulda — V2GL3 — position and weather

sailwx.info

Track history (hours):
 
Tides and Currents Weather Stations Pressure Air Temp Water Temp Dewpoint Dewpoint Depression Visibility Wind Speed Wind Dir Waves Ship Positions

Fulda

Last reported at 2018-Aug-16 18:13 UTC. Time now 2018-Aug-17 11:41 UTC.
Position N 40°19' E 014°23'.

Length 100 m; draft 3.5 m.

Type: Ship. MMSI: 304010995.

Date/timePositionNaut miles runAvg speedWind from/ knotsBaromVisibWave heightAir tempDewpointWater temp
2018-Aug-16 18:13N 40°19' E 014°23'211.1
2018-Aug-16 18:00N 40°21' E 014°25'611.2
2018-Aug-16 17:30N 40°25' E 014°29'510.9
2018-Aug-16 17:00N 40°29' E 014°35'510.9
2018-Aug-16 16:30N 40°33' E 014°40'4 8.4
2018-Aug-16 16:00N 40°36' E 014°42'1 0.0
2018-Aug-15 10:00N 40°37' E 014°42'510.1
2018-Aug-15 09:30N 40°35' E 014°36'510.3
2018-Aug-15 09:00N 40°33' E 014°30'510.5
2018-Aug-15 08:30N 40°32' E 014°23'510.4
2018-Aug-15 08:00N 40°30' E 014°17'510.1
2018-Aug-15 07:30N 40°29' E 014°10'4 9.0
2018-Aug-15 07:00N 40°30' E 014°04'5 9.5
2018-Aug-15 06:30N 40°32' E 013°59'510.2
2018-Aug-15 06:00N 40°33' E 013°52'510.5
2018-Aug-15 05:30N 40°34' E 013°45'510.6
2018-Aug-15 05:00N 40°35' E 013°38'510.5
2018-Aug-15 04:29N 40°37' E 013°31'510.4
2018-Aug-15 03:59N 40°38' E 013°25'710.4
2018-Aug-15 03:20N 40°40' E 013°16'310.2
2018-Aug-15 02:59N 40°40' E 013°12'39410.1
2018-Aug-13 12:06N 43°11' E 005°03'1 9.9
2018-Aug-13 11:58N 43°12' E 005°01'510.1
2018-Aug-13 11:29N 43°17' E 004°59'510.1
2018-Aug-13 11:00N 43°21' E 004°58'4 8.2
2018-Aug-13 10:29N 43°24' E 004°53'1 3.0
2018-Aug-13 10:00N 43°26' E 004°53'0 0.0
2018-Aug-13 09:26N 43°26' E 004°53'0 0.0
2018-Aug-13 08:47N 43°26' E 004°53'0 0.0
2018-Aug-13 07:41N 43°26' E 004°53'0 0.0
2018-Aug-13 07:29N 43°26' E 004°53'0 0.0
2018-Aug-13 06:56N 43°26' E 004°53'0 0.0
2018-Aug-13 06:26N 43°26' E 004°53'0 0.0
2018-Aug-13 05:59N 43°26' E 004°53'0 0.0
2018-Aug-13 05:29N 43°26' E 004°53'0 0.0
2018-Aug-13 04:53N 43°26' E 004°53'0 0.0
2018-Aug-13 04:29N 43°26' E 004°53'0 0.0
2018-Aug-13 03:59N 43°26' E 004°53'0 0.0
2018-Aug-13 03:29N 43°26' E 004°53'0 0.0
2018-Aug-13 02:59N 43°26' E 004°53'0 0.0
2018-Aug-13 02:29N 43°26' E 004°53'0 0.0
2018-Aug-13 01:59N 43°26' E 004°53'0 0.0
2018-Aug-13 01:23N 43°26' E 004°53'0 0.0
2018-Aug-13 00:59N 43°26' E 004°53'0 0.0
2018-Aug-13 00:29N 43°26' E 004°53'0 0.0
2018-Aug-12 23:53N 43°26' E 004°53'0 0.0
2018-Aug-12 23:29N 43°26' E 004°53'0 0.0
2018-Aug-12 22:59N 43°26' E 004°53'0 0.0
2018-Aug-12 22:29N 43°26' E 004°53'0 0.0
2018-Aug-12 21:59N 43°26' E 004°53'0 0.0
2018-Aug-12 21:29N 43°26' E 004°53'0 0.0
2018-Aug-12 20:59N 43°26' E 004°53'0 0.0
2018-Aug-12 20:29N 43°26' E 004°53'0 0.0
2018-Aug-12 19:59N 43°26' E 004°53'0 0.0
2018-Aug-12 19:29N 43°26' E 004°53'0 0.0
2018-Aug-12 18:59N 43°26' E 004°53'0 0.0
2018-Aug-12 18:29N 43°26' E 004°53'0 0.0
2018-Aug-12 17:59N 43°26' E 004°53'0 0.0
2018-Aug-12 17:26N 43°26' E 004°53'0 0.0
2018-Aug-12 17:00N 43°26' E 004°53'3 6.0
2018-Aug-12 16:30N 43°23' E 004°56'5 9.6
2018-Aug-12 16:00N 43°19' E 004°60'611.2
2018-Aug-12 15:30N 43°14' E 005°02'15611.3
2018-Aug-12 01:46N 41°23' E 002°35'310.5
2018-Aug-12 01:28N 41°21' E 002°31'510.5
2018-Aug-12 01:00N 41°18' E 002°26'510.3
2018-Aug-12 00:30N 41°14' E 002°21'510.2
2018-Aug-12 00:00N 41°11' E 002°16'510.5
2018-Aug-11 23:30N 41°07' E 002°11'810.5
2018-Aug-11 22:47N 41°02' E 002°04'310.7
2018-Aug-11 22:30N 41°00' E 002°01'510.8
2018-Aug-11 22:00N 40°57' E 001°56'15 0.4
2018-Aug-10 06:03N 41°07' E 002°10'1 8.7
2018-Aug-10 05:53N 41°08' E 002°12'4 8.8
2018-Aug-10 05:28N 41°10' E 002°15'4 8.7
2018-Aug-10 05:00N 41°13' E 002°19'8 8.6
2018-Aug-10 04:01N 41°19' E 002°27'1 8.5
2018-Aug-10 03:57N 41°19' E 002°28'4 8.6
2018-Aug-10 03:27N 41°22' E 002°32'156 8.0
2018-Aug-09 07:48N 43°18' E 004°55'3 8.2
2018-Aug-09 07:27N 43°19' E 004°58'4 8.0
2018-Aug-09 07:00N 43°22' E 004°57'4 7.3
2018-Aug-09 06:30N 43°24' E 004°53'1 2.4
2018-Aug-09 05:58N 43°26' E 004°54'0 0.0
2018-Aug-09 05:28N 43°26' E 004°54'0 0.0
2018-Aug-09 04:58N 43°26' E 004°54'0 0.0
2018-Aug-09 04:25N 43°26' E 004°54'0 0.0
2018-Aug-09 03:55N 43°26' E 004°54'0 0.0
2018-Aug-09 03:28N 43°26' E 004°54'0 0.0
2018-Aug-09 02:58N 43°26' E 004°54'0 0.0
2018-Aug-09 02:25N 43°26' E 004°54'0 0.0
2018-Aug-09 01:55N 43°26' E 004°54'0 0.0
2018-Aug-09 01:25N 43°26' E 004°54'0 0.0
2018-Aug-09 00:58N 43°26' E 004°54'0 0.0
2018-Aug-09 00:28N 43°26' E 004°54'0 0.0
2018-Aug-08 23:55N 43°26' E 004°54'0 0.0
2018-Aug-08 23:28N 43°26' E 004°54'0 0.0
2018-Aug-08 22:58N 43°26' E 004°54'0 0.0
2018-Aug-08 22:25N 43°26' E 004°54'0 0.0
2018-Aug-08 21:58N 43°26' E 004°54'0 0.0
2018-Aug-08 21:28N 43°26' E 004°54'0 0.0
2018-Aug-08 20:58N 43°26' E 004°54'0 0.0
2018-Aug-08 20:28N 43°26' E 004°54'0 0.0
2018-Aug-08 19:55N 43°26' E 004°54'0 0.0
2018-Aug-08 19:25N 43°26' E 004°54'0 0.0
2018-Aug-08 18:55N 43°26' E 004°54'0 0.0
2018-Aug-08 18:25N 43°26' E 004°54'0 0.0
2018-Aug-08 17:58N 43°26' E 004°54'0 0.0
2018-Aug-08 17:25N 43°26' E 004°54'0 0.0
2018-Aug-08 16:49N 43°26' E 004°54'0 0.0
2018-Aug-08 16:28N 43°26' E 004°54'0 0.0
2018-Aug-08 15:58N 43°26' E 004°54'0 0.0
2018-Aug-08 15:22N 43°26' E 004°54'0 0.0
2018-Aug-08 14:55N 43°26' E 004°54'0 0.0
2018-Aug-08 14:25N 43°26' E 004°54'0 0.0
2018-Aug-08 13:55N 43°26' E 004°54'0 0.0
2018-Aug-08 13:25N 43°26' E 004°54'0 0.0
2018-Aug-08 12:58N 43°26' E 004°54'0 0.0
2018-Aug-08 12:28N 43°26' E 004°54'0 0.0
2018-Aug-08 11:49N 43°26' E 004°54'0 0.0
2018-Aug-08 11:25N 43°26' E 004°54'0 0.0
2018-Aug-08 10:55N 43°26' E 004°54'0 0.0
2018-Aug-08 10:28N 43°26' E 004°54'0 0.0
2018-Aug-08 09:58N 43°26' E 004°54'0 0.0
2018-Aug-08 09:28N 43°26' E 004°54'0 0.0
2018-Aug-08 08:58N 43°26' E 004°54'0 0.0
2018-Aug-08 08:28N 43°26' E 004°54'0 0.0
2018-Aug-08 07:55N 43°26' E 004°54'0 0.0
2018-Aug-08 07:28N 43°26' E 004°54'0 0.0
2018-Aug-08 06:58N 43°26' E 004°54'0 0.0
2018-Aug-08 06:28N 43°26' E 004°54'0 0.0
2018-Aug-08 05:55N 43°26' E 004°54'0 0.0
2018-Aug-08 05:25N 43°26' E 004°54'0 0.0
2018-Aug-08 04:55N 43°26' E 004°54'0 0.0
2018-Aug-08 04:28N 43°26' E 004°54'0 0.0
2018-Aug-08 03:58N 43°26' E 004°54'0 0.0
2018-Aug-08 03:25N 43°26' E 004°54'0 0.0
2018-Aug-08 02:58N 43°26' E 004°54'0 0.0
2018-Aug-08 02:28N 43°26' E 004°54'0 0.0
2018-Aug-08 01:58N 43°26' E 004°54'0 0.0
2018-Aug-08 01:28N 43°26' E 004°54'0 0.0
2018-Aug-08 00:55N 43°26' E 004°54'0 0.0
2018-Aug-08 00:28N 43°26' E 004°54'0 0.0
2018-Aug-07 23:58N 43°26' E 004°54'0 0.0
2018-Aug-07 23:25N 43°26' E 004°54'0 0.0
2018-Aug-07 22:55N 43°26' E 004°54'0 0.0
2018-Aug-07 22:25N 43°26' E 004°54'0 0.0
2018-Aug-07 21:55N 43°26' E 004°54'0 0.0
2018-Aug-07 21:25N 43°26' E 004°54'0 0.0
2018-Aug-07 20:55N 43°26' E 004°54'0 0.0
2018-Aug-07 20:25N 43°26' E 004°54'0 0.0
2018-Aug-07 19:58N 43°26' E 004°54'0 0.0
2018-Aug-07 19:25N 43°26' E 004°54'0 0.0
2018-Aug-07 18:55N 43°26' E 004°54'0 0.0
2018-Aug-07 18:25N 43°26' E 004°54'0 0.0
2018-Aug-07 17:55N 43°26' E 004°54'0 0.0
2018-Aug-07 17:25N 43°26' E 004°54'0 0.0
2018-Aug-07 16:58N 43°26' E 004°54'0 0.0
2018-Aug-07 16:28N 43°26' E 004°54'0 0.0
2018-Aug-07 15:55N 43°26' E 004°54'0 0.0
2018-Aug-07 15:25N 43°26' E 004°54'0 0.0
2018-Aug-07 14:58N 43°26' E 004°54'0 0.0
2018-Aug-07 14:28N 43°26' E 004°54'0 0.0
2018-Aug-07 13:58N 43°26' E 004°54'0 0.0
2018-Aug-07 13:28N 43°26' E 004°54'0 0.0
2018-Aug-07 12:58N 43°26' E 004°54'0 0.0
2018-Aug-07 12:25N 43°26' E 004°54'0 0.0
2018-Aug-07 11:58N 43°26' E 004°54'0 0.0
2018-Aug-07 11:28N 43°26' E 004°54'0 0.0
2018-Aug-07 10:55N 43°26' E 004°54'0 0.0
2018-Aug-07 10:28N 43°26' E 004°54'0 0.0
2018-Aug-07 09:58N 43°26' E 004°54'0 0.0
2018-Aug-07 09:28N 43°26' E 004°54'0 0.0
2018-Aug-07 08:58N 43°26' E 004°54'0 0.0
2018-Aug-07 08:28N 43°26' E 004°54'0 0.0
2018-Aug-07 07:58N 43°26' E 004°54'0 0.0
2018-Aug-07 07:28N 43°26' E 004°54'0 0.0
2018-Aug-07 06:55N 43°26' E 004°54'0 0.0
2018-Aug-07 06:28N 43°26' E 004°54'0 0.0
2018-Aug-07 05:55N 43°26' E 004°54'0 0.0
2018-Aug-07 05:25N 43°26' E 004°54'0 0.0
2018-Aug-07 04:55N 43°26' E 004°54'0 0.0
2018-Aug-07 04:28N 43°26' E 004°54'0 0.0
2018-Aug-07 03:55N 43°26' E 004°54'0 0.0
2018-Aug-07 03:25N 43°26' E 004°54'0 0.0
2018-Aug-07 02:55N 43°26' E 004°54'0 0.0
2018-Aug-07 02:25N 43°26' E 004°54'0 0.0
2018-Aug-07 01:55N 43°26' E 004°54'0 0.0
2018-Aug-07 01:28N 43°26' E 004°54'0 0.0
2018-Aug-07 00:58N 43°26' E 004°54'0 0.0
2018-Aug-07 00:19N 43°26' E 004°54'0 0.0
2018-Aug-06 23:58N 43°26' E 004°54'0 0.0
2018-Aug-06 23:28N 43°26' E 004°54'0 0.0
2018-Aug-06 22:55N 43°26' E 004°54'0 0.0
2018-Aug-06 22:25N 43°26' E 004°54'0 0.0
2018-Aug-06 21:55N 43°26' E 004°54'0 0.0
2018-Aug-06 21:25N 43°26' E 004°54'0 0.0
2018-Aug-06 20:58N 43°26' E 004°54'0 0.0
2018-Aug-06 20:28N 43°26' E 004°54'0 0.0
2018-Aug-06 19:55N 43°26' E 004°54'0 0.0
2018-Aug-06 19:28N 43°26' E 004°54'0 0.0
2018-Aug-06 18:52N 43°26' E 004°54'0 0.0
2018-Aug-06 18:28N 43°26' E 004°54'  
Track history (hours):
 
Tides and Currents Weather Stations Pressure Air Temp Water Temp Dewpoint Dewpoint Depression Visibility Wind Speed Wind Dir Waves Ship Positions

Fulda

Last reported at 2018-Aug-16 18:13 UTC. Time now 2018-Aug-17 11:41 UTC.
Position N 40°19' E 014°23'.

Length 100 m; draft 3.5 m.

Type: Ship. MMSI: 304010995.

Date/timePositionNaut miles runAvg speedWind from/ knotsBaromVisibWave heightAir tempDewpointWater temp
2018-Aug-16 18:13N 40°19' E 014°23'211.1
2018-Aug-16 18:00N 40°21' E 014°25'611.2
2018-Aug-16 17:30N 40°25' E 014°29'510.9
2018-Aug-16 17:00N 40°29' E 014°35'510.9
2018-Aug-16 16:30N 40°33' E 014°40'4 8.4
2018-Aug-16 16:00N 40°36' E 014°42'1 0.0
2018-Aug-15 10:00N 40°37' E 014°42'510.1
2018-Aug-15 09:30N 40°35' E 014°36'510.3
2018-Aug-15 09:00N 40°33' E 014°30'510.5
2018-Aug-15 08:30N 40°32' E 014°23'510.4
2018-Aug-15 08:00N 40°30' E 014°17'510.1
2018-Aug-15 07:30N 40°29' E 014°10'4 9.0
2018-Aug-15 07:00N 40°30' E 014°04'5 9.5
2018-Aug-15 06:30N 40°32' E 013°59'510.2
2018-Aug-15 06:00N 40°33' E 013°52'510.5
2018-Aug-15 05:30N 40°34' E 013°45'510.6
2018-Aug-15 05:00N 40°35' E 013°38'510.5
2018-Aug-15 04:29N 40°37' E 013°31'510.4
2018-Aug-15 03:59N 40°38' E 013°25'710.4
2018-Aug-15 03:20N 40°40' E 013°16'310.2
2018-Aug-15 02:59N 40°40' E 013°12'39410.1
2018-Aug-13 12:06N 43°11' E 005°03'1 9.9
2018-Aug-13 11:58N 43°12' E 005°01'510.1
2018-Aug-13 11:29N 43°17' E 004°59'510.1
2018-Aug-13 11:00N 43°21' E 004°58'4 8.2
2018-Aug-13 10:29N 43°24' E 004°53'1 3.0
2018-Aug-13 10:00N 43°26' E 004°53'0 0.0
2018-Aug-13 09:26N 43°26' E 004°53'0 0.0
2018-Aug-13 08:47N 43°26' E 004°53'0 0.0
2018-Aug-13 07:41N 43°26' E 004°53'0 0.0
2018-Aug-13 07:29N 43°26' E 004°53'0 0.0
2018-Aug-13 06:56N 43°26' E 004°53'0 0.0
2018-Aug-13 06:26N 43°26' E 004°53'0 0.0
2018-Aug-13 05:59N 43°26' E 004°53'0 0.0
2018-Aug-13 05:29N 43°26' E 004°53'0 0.0
2018-Aug-13 04:53N 43°26' E 004°53'0 0.0
2018-Aug-13 04:29N 43°26' E 004°53'0 0.0
2018-Aug-13 03:59N 43°26' E 004°53'0 0.0
2018-Aug-13 03:29N 43°26' E 004°53'0 0.0
2018-Aug-13 02:59N 43°26' E 004°53'0 0.0
2018-Aug-13 02:29N 43°26' E 004°53'0 0.0
2018-Aug-13 01:59N 43°26' E 004°53'0 0.0
2018-Aug-13 01:23N 43°26' E 004°53'0 0.0
2018-Aug-13 00:59N 43°26' E 004°53'0 0.0
2018-Aug-13 00:29N 43°26' E 004°53'0 0.0
2018-Aug-12 23:53N 43°26' E 004°53'0 0.0
2018-Aug-12 23:29N 43°26' E 004°53'0 0.0
2018-Aug-12 22:59N 43°26' E 004°53'0 0.0
2018-Aug-12 22:29N 43°26' E 004°53'0 0.0
2018-Aug-12 21:59N 43°26' E 004°53'0 0.0
2018-Aug-12 21:29N 43°26' E 004°53'0 0.0
2018-Aug-12 20:59N 43°26' E 004°53'0 0.0
2018-Aug-12 20:29N 43°26' E 004°53'0 0.0
2018-Aug-12 19:59N 43°26' E 004°53'0 0.0
2018-Aug-12 19:29N 43°26' E 004°53'0 0.0
2018-Aug-12 18:59N 43°26' E 004°53'0 0.0
2018-Aug-12 18:29N 43°26' E 004°53'0 0.0
2018-Aug-12 17:59N 43°26' E 004°53'0 0.0
2018-Aug-12 17:26N 43°26' E 004°53'0 0.0
2018-Aug-12 17:00N 43°26' E 004°53'3 6.0
2018-Aug-12 16:30N 43°23' E 004°56'5 9.6
2018-Aug-12 16:00N 43°19' E 004°60'611.2
2018-Aug-12 15:30N 43°14' E 005°02'15611.3
2018-Aug-12 01:46N 41°23' E 002°35'310.5
2018-Aug-12 01:28N 41°21' E 002°31'510.5
2018-Aug-12 01:00N 41°18' E 002°26'510.3
2018-Aug-12 00:30N 41°14' E 002°21'510.2
2018-Aug-12 00:00N 41°11' E 002°16'510.5
2018-Aug-11 23:30N 41°07' E 002°11'810.5
2018-Aug-11 22:47N 41°02' E 002°04'310.7
2018-Aug-11 22:30N 41°00' E 002°01'510.8
2018-Aug-11 22:00N 40°57' E 001°56'15 0.4
2018-Aug-10 06:03N 41°07' E 002°10'1 8.7
2018-Aug-10 05:53N 41°08' E 002°12'4 8.8
2018-Aug-10 05:28N 41°10' E 002°15'4 8.7
2018-Aug-10 05:00N 41°13' E 002°19'8 8.6
2018-Aug-10 04:01N 41°19' E 002°27'1 8.5
2018-Aug-10 03:57N 41°19' E 002°28'4 8.6
2018-Aug-10 03:27N 41°22' E 002°32'156 8.0
2018-Aug-09 07:48N 43°18' E 004°55'3 8.2
2018-Aug-09 07:27N 43°19' E 004°58'4 8.0
2018-Aug-09 07:00N 43°22' E 004°57'4 7.3
2018-Aug-09 06:30N 43°24' E 004°53'1 2.4
2018-Aug-09 05:58N 43°26' E 004°54'0 0.0
2018-Aug-09 05:28N 43°26' E 004°54'0 0.0
2018-Aug-09 04:58N 43°26' E 004°54'0 0.0
2018-Aug-09 04:25N 43°26' E 004°54'0 0.0
2018-Aug-09 03:55N 43°26' E 004°54'0 0.0
2018-Aug-09 03:28N 43°26' E 004°54'0 0.0
2018-Aug-09 02:58N 43°26' E 004°54'0 0.0
2018-Aug-09 02:25N 43°26' E 004°54'0 0.0
2018-Aug-09 01:55N 43°26' E 004°54'0 0.0
2018-Aug-09 01:25N 43°26' E 004°54'0 0.0
2018-Aug-09 00:58N 43°26' E 004°54'0 0.0
2018-Aug-09 00:28N 43°26' E 004°54'0 0.0
2018-Aug-08 23:55N 43°26' E 004°54'0 0.0
2018-Aug-08 23:28N 43°26' E 004°54'0 0.0
2018-Aug-08 22:58N 43°26' E 004°54'0 0.0
2018-Aug-08 22:25N 43°26' E 004°54'0 0.0
2018-Aug-08 21:58N 43°26' E 004°54'0 0.0
2018-Aug-08 21:28N 43°26' E 004°54'0 0.0
2018-Aug-08 20:58N 43°26' E 004°54'0 0.0
2018-Aug-08 20:28N 43°26' E 004°54'0 0.0
2018-Aug-08 19:55N 43°26' E 004°54'0 0.0
2018-Aug-08 19:25N 43°26' E 004°54'0 0.0
2018-Aug-08 18:55N 43°26' E 004°54'0 0.0
2018-Aug-08 18:25N 43°26' E 004°54'0 0.0
2018-Aug-08 17:58N 43°26' E 004°54'0 0.0
2018-Aug-08 17:25N 43°26' E 004°54'0 0.0
2018-Aug-08 16:49N 43°26' E 004°54'0 0.0
2018-Aug-08 16:28N 43°26' E 004°54'0 0.0
2018-Aug-08 15:58N 43°26' E 004°54'0 0.0
2018-Aug-08 15:22N 43°26' E 004°54'0 0.0
2018-Aug-08 14:55N 43°26' E 004°54'0 0.0
2018-Aug-08 14:25N 43°26' E 004°54'0 0.0
2018-Aug-08 13:55N 43°26' E 004°54'0 0.0
2018-Aug-08 13:25N 43°26' E 004°54'0 0.0
2018-Aug-08 12:58N 43°26' E 004°54'0 0.0
2018-Aug-08 12:28N 43°26' E 004°54'0 0.0
2018-Aug-08 11:49N 43°26' E 004°54'0 0.0
2018-Aug-08 11:25N 43°26' E 004°54'0 0.0
2018-Aug-08 10:55N 43°26' E 004°54'0 0.0
2018-Aug-08 10:28N 43°26' E 004°54'0 0.0
2018-Aug-08 09:58N 43°26' E 004°54'0 0.0
2018-Aug-08 09:28N 43°26' E 004°54'0 0.0
2018-Aug-08 08:58N 43°26' E 004°54'0 0.0
2018-Aug-08 08:28N 43°26' E 004°54'0 0.0
2018-Aug-08 07:55N 43°26' E 004°54'0 0.0
2018-Aug-08 07:28N 43°26' E 004°54'0 0.0
2018-Aug-08 06:58N 43°26' E 004°54'0 0.0
2018-Aug-08 06:28N 43°26' E 004°54'0 0.0
2018-Aug-08 05:55N 43°26' E 004°54'0 0.0
2018-Aug-08 05:25N 43°26' E 004°54'0 0.0
2018-Aug-08 04:55N 43°26' E 004°54'0 0.0
2018-Aug-08 04:28N 43°26' E 004°54'0 0.0
2018-Aug-08 03:58N 43°26' E 004°54'0 0.0
2018-Aug-08 03:25N 43°26' E 004°54'0 0.0
2018-Aug-08 02:58N 43°26' E 004°54'0 0.0
2018-Aug-08 02:28N 43°26' E 004°54'0 0.0
2018-Aug-08 01:58N 43°26' E 004°54'0 0.0
2018-Aug-08 01:28N 43°26' E 004°54'0 0.0
2018-Aug-08 00:55N 43°26' E 004°54'0 0.0
2018-Aug-08 00:28N 43°26' E 004°54'0 0.0
2018-Aug-07 23:58N 43°26' E 004°54'0 0.0
2018-Aug-07 23:25N 43°26' E 004°54'0 0.0
2018-Aug-07 22:55N 43°26' E 004°54'0 0.0
2018-Aug-07 22:25N 43°26' E 004°54'0 0.0
2018-Aug-07 21:55N 43°26' E 004°54'0 0.0
2018-Aug-07 21:25N 43°26' E 004°54'0 0.0
2018-Aug-07 20:55N 43°26' E 004°54'0 0.0
2018-Aug-07 20:25N 43°26' E 004°54'0 0.0
2018-Aug-07 19:58N 43°26' E 004°54'0 0.0
2018-Aug-07 19:25N 43°26' E 004°54'0 0.0
2018-Aug-07 18:55N 43°26' E 004°54'0 0.0
2018-Aug-07 18:25N 43°26' E 004°54'0 0.0
2018-Aug-07 17:55N 43°26' E 004°54'0 0.0
2018-Aug-07 17:25N 43°26' E 004°54'0 0.0
2018-Aug-07 16:58N 43°26' E 004°54'0 0.0
2018-Aug-07 16:28N 43°26' E 004°54'0 0.0
2018-Aug-07 15:55N 43°26' E 004°54'0 0.0
2018-Aug-07 15:25N 43°26' E 004°54'0 0.0
2018-Aug-07 14:58N 43°26' E 004°54'0 0.0
2018-Aug-07 14:28N 43°26' E 004°54'0 0.0
2018-Aug-07 13:58N 43°26' E 004°54'0 0.0
2018-Aug-07 13:28N 43°26' E 004°54'0 0.0
2018-Aug-07 12:58N 43°26' E 004°54'0 0.0
2018-Aug-07 12:25N 43°26' E 004°54'0 0.0
2018-Aug-07 11:58N 43°26' E 004°54'0 0.0
2018-Aug-07 11:28N 43°26' E 004°54'0 0.0
2018-Aug-07 10:55N 43°26' E 004°54'0 0.0
2018-Aug-07 10:28N 43°26' E 004°54'0 0.0
2018-Aug-07 09:58N 43°26' E 004°54'0 0.0
2018-Aug-07 09:28N 43°26' E 004°54'0 0.0
2018-Aug-07 08:58N 43°26' E 004°54'0 0.0
2018-Aug-07 08:28N 43°26' E 004°54'0 0.0
2018-Aug-07 07:58N 43°26' E 004°54'0 0.0
2018-Aug-07 07:28N 43°26' E 004°54'0 0.0
2018-Aug-07 06:55N 43°26' E 004°54'0 0.0
2018-Aug-07 06:28N 43°26' E 004°54'0 0.0
2018-Aug-07 05:55N 43°26' E 004°54'0 0.0
2018-Aug-07 05:25N 43°26' E 004°54'0 0.0
2018-Aug-07 04:55N 43°26' E 004°54'0 0.0
2018-Aug-07 04:28N 43°26' E 004°54'0 0.0
2018-Aug-07 03:55N 43°26' E 004°54'0 0.0
2018-Aug-07 03:25N 43°26' E 004°54'0 0.0
2018-Aug-07 02:55N 43°26' E 004°54'0 0.0
2018-Aug-07 02:25N 43°26' E 004°54'0 0.0
2018-Aug-07 01:55N 43°26' E 004°54'0 0.0
2018-Aug-07 01:28N 43°26' E 004°54'0 0.0
2018-Aug-07 00:58N 43°26' E 004°54'0 0.0
2018-Aug-07 00:19N 43°26' E 004°54'0 0.0
2018-Aug-06 23:58N 43°26' E 004°54'0 0.0
2018-Aug-06 23:28N 43°26' E 004°54'0 0.0
2018-Aug-06 22:55N 43°26' E 004°54'0 0.0
2018-Aug-06 22:25N 43°26' E 004°54'0 0.0
2018-Aug-06 21:55N 43°26' E 004°54'0 0.0
2018-Aug-06 21:25N 43°26' E 004°54'0 0.0
2018-Aug-06 20:58N 43°26' E 004°54'0 0.0
2018-Aug-06 20:28N 43°26' E 004°54'0 0.0
2018-Aug-06 19:55N 43°26' E 004°54'0 0.0
2018-Aug-06 19:28N 43°26' E 004°54'0 0.0
2018-Aug-06 18:52N 43°26' E 004°54'0 0.0
2018-Aug-06 18:28N 43°26' E 004°54'  

Dump ship's entire track history